sensor_id;sensor_type;location;lat;lon;timestamp;temperature;humidity
43047;DHT22;28672;49.358;8.780;2022-12-29T00:02:20;5.70;99.90
43047;DHT22;28672;49.358;8.780;2022-12-29T00:04:46;5.70;99.90
43047;DHT22;28672;49.358;8.780;2022-12-29T00:07:11;5.70;99.90
43047;DHT22;28672;49.358;8.780;2022-12-29T00:09:37;5.70;99.90
43047;DHT22;28672;49.358;8.780;2022-12-29T00:12:03;5.70;99.90
43047;DHT22;28672;49.358;8.780;2022-12-29T00:14:29;5.80;99.90
43047;DHT22;28672;49.358;8.780;2022-12-29T00:17:14;5.80;99.90
43047;DHT22;28672;49.358;8.780;2022-12-29T00:19:40;5.80;99.90
43047;DHT22;28672;49.358;8.780;2022-12-29T00:22:24;5.80;99.90
43047;DHT22;28672;49.358;8.780;2022-12-29T00:25:10;5.80;99.90
43047;DHT22;28672;49.358;8.780;2022-12-29T00:27:54;5.80;99.90
43047;DHT22;28672;49.358;8.780;2022-12-29T00:30:39;5.80;99.90
43047;DHT22;28672;49.358;8.780;2022-12-29T00:33:26;5.80;99.90
43047;DHT22;28672;49.358;8.780;2022-12-29T00:38:59;5.90;99.90
43047;DHT22;28672;49.358;8.780;2022-12-29T00:41:43;5.90;99.90
43047;DHT22;28672;49.358;8.780;2022-12-29T00:44:27;5.90;99.90
43047;DHT22;28672;49.358;8.780;2022-12-29T00:46:53;5.90;99.90
43047;DHT22;28672;49.358;8.780;2022-12-29T00:49:19;5.90;99.90
43047;DHT22;28672;49.358;8.780;2022-12-29T00:52:08;5.90;99.90
43047;DHT22;28672;49.358;8.780;2022-12-29T00:54:36;5.90;99.90
43047;DHT22;28672;49.358;8.780;2022-12-29T00:57:03;6.00;99.90
43047;DHT22;28672;49.358;8.780;2022-12-29T00:59:29;6.00;99.90
43047;DHT22;28672;49.358;8.780;2022-12-29T01:01:55;6.00;99.90
43047;DHT22;28672;49.358;8.780;2022-12-29T01:04:22;6.10;99.90
43047;DHT22;28672;49.358;8.780;2022-12-29T01:06:49;6.10;99.90
43047;DHT22;28672;49.358;8.780;2022-12-29T01:09:14;6.20;99.90
43047;DHT22;28672;49.358;8.780;2022-12-29T01:11:59;6.30;99.90
43047;DHT22;28672;49.358;8.780;2022-12-29T01:14:25;6.40;99.90
43047;DHT22;28672;49.358;8.780;2022-12-29T01:16:51;6.50;99.90
43047;DHT22;28672;49.358;8.780;2022-12-29T01:19:17;6.90;99.90
43047;DHT22;28672;49.358;8.780;2022-12-29T01:21:43;8.20;99.90
43047;DHT22;28672;49.358;8.780;2022-12-29T01:24:09;8.60;99.90
43047;DHT22;28672;49.358;8.780;2022-12-29T01:26:34;9.20;99.90
43047;DHT22;28672;49.358;8.780;2022-12-29T01:29:00;9.60;99.90
43047;DHT22;28672;49.358;8.780;2022-12-29T01:31:26;9.90;99.90
43047;DHT22;28672;49.358;8.780;2022-12-29T01:33:51;10.30;99.90
43047;DHT22;28672;49.358;8.780;2022-12-29T01:36:17;10.50;99.90
43047;DHT22;28672;49.358;8.780;2022-12-29T01:38:44;10.60;99.90
43047;DHT22;28672;49.358;8.780;2022-12-29T01:41:12;10.80;99.90
43047;DHT22;28672;49.358;8.780;2022-12-29T01:43:50;11.00;99.90
43047;DHT22;28672;49.358;8.780;2022-12-29T01:51:37;11.20;99.90
43047;DHT22;28672;49.358;8.780;2022-12-29T01:54:08;11.20;99.90
43047;DHT22;28672;49.358;8.780;2022-12-29T01:56:35;11.40;99.90
43047;DHT22;28672;49.358;8.780;2022-12-29T01:59:05;11.20;99.90
43047;DHT22;28672;49.358;8.780;2022-12-29T02:01:33;11.20;99.90
43047;DHT22;28672;49.358;8.780;2022-12-29T02:03:59;11.20;99.90
43047;DHT22;28672;49.358;8.780;2022-12-29T02:06:53;11.20;99.90
43047;DHT22;28672;49.358;8.780;2022-12-29T02:09:21;11.40;99.90
43047;DHT22;28672;49.358;8.780;2022-12-29T02:11:47;11.30;99.90
43047;DHT22;28672;49.358;8.780;2022-12-29T02:14:13;11.30;99.90
43047;DHT22;28672;49.358;8.780;2022-12-29T02:34:01;10.90;99.90
43047;DHT22;28672;49.358;8.780;2022-12-29T02:36:59;10.80;99.90
43047;DHT22;28672;49.358;8.780;2022-12-29T02:45:12;10.80;99.90
43047;DHT22;28672;49.358;8.780;2022-12-29T02:48:04;10.70;99.90
43047;DHT22;28672;49.358;8.780;2022-12-29T02:50:40;10.80;99.90
43047;DHT22;28672;49.358;8.780;2022-12-29T02:53:16;10.70;99.90
43047;DHT22;28672;49.358;8.780;2022-12-29T02:55:49;10.70;99.90
43047;DHT22;28672;49.358;8.780;2022-12-29T02:58:18;10.60;99.90
43047;DHT22;28672;49.358;8.780;2022-12-29T03:01:15;10.60;99.90
43047;DHT22;28672;49.358;8.780;2022-12-29T03:04:22;10.60;99.90
43047;DHT22;28672;49.358;8.780;2022-12-29T03:07:19;10.50;99.90
43047;DHT22;28672;49.358;8.780;2022-12-29T03:10:09;10.40;99.90
43047;DHT22;28672;49.358;8.780;2022-12-29T03:12:53;10.40;99.90
43047;DHT22;28672;49.358;8.780;2022-12-29T03:15:45;10.40;99.90
43047;DHT22;28672;49.358;8.780;2022-12-29T03:24:47;10.20;99.90
43047;DHT22;28672;49.358;8.780;2022-12-29T03:27:18;10.20;99.90
43047;DHT22;28672;49.358;8.780;2022-12-29T03:29:47;10.00;99.90
43047;DHT22;28672;49.358;8.780;2022-12-29T03:32:19;9.90;99.90
43047;DHT22;28672;49.358;8.780;2022-12-29T03:34:47;9.80;99.90
43047;DHT22;28672;49.358;8.780;2022-12-29T03:37:17;9.80;99.90
43047;DHT22;28672;49.358;8.780;2022-12-29T03:39:43;9.80;99.90
43047;DHT22;28672;49.358;8.780;2022-12-29T03:42:22;9.80;99.90
43047;DHT22;28672;49.358;8.780;2022-12-29T03:44:54;9.80;99.90
43047;DHT22;28672;49.358;8.780;2022-12-29T03:47:22;9.80;99.90
43047;DHT22;28672;49.358;8.780;2022-12-29T03:49:48;9.70;99.90
43047;DHT22;28672;49.358;8.780;2022-12-29T03:52:14;9.80;99.90
43047;DHT22;28672;49.358;8.780;2022-12-29T03:54:40;9.80;99.90
43047;DHT22;28672;49.358;8.780;2022-12-29T03:57:06;9.80;99.90
43047;DHT22;28672;49.358;8.780;2022-12-29T03:59:31;9.80;99.90
43047;DHT22;28672;49.358;8.780;2022-12-29T04:01:57;9.70;99.90
43047;DHT22;28672;49.358;8.780;2022-12-29T04:04:22;9.70;99.90
43047;DHT22;28672;49.358;8.780;2022-12-29T04:06:48;9.70;99.90
43047;DHT22;28672;49.358;8.780;2022-12-29T04:09:14;9.70;99.90
43047;DHT22;28672;49.358;8.780;2022-12-29T04:11:39;9.60;99.90
43047;DHT22;28672;49.358;8.780;2022-12-29T04:14:05;9.60;99.90
43047;DHT22;28672;49.358;8.780;2022-12-29T04:16:30;9.50;99.90
43047;DHT22;28672;49.358;8.780;2022-12-29T04:18:56;9.50;99.90
43047;DHT22;28672;49.358;8.780;2022-12-29T04:21:21;9.50;99.90
43047;DHT22;28672;49.358;8.780;2022-12-29T04:23:47;9.60;99.90
43047;DHT22;28672;49.358;8.780;2022-12-29T04:26:12;9.60;99.90
43047;DHT22;28672;49.358;8.780;2022-12-29T04:28:38;9.70;99.90
43047;DHT22;28672;49.358;8.780;2022-12-29T04:31:04;9.70;99.90
43047;DHT22;28672;49.358;8.780;2022-12-29T04:33:30;9.70;99.90
43047;DHT22;28672;49.358;8.780;2022-12-29T04:35:56;9.80;99.90
43047;DHT22;28672;49.358;8.780;2022-12-29T04:38:22;9.90;99.90
43047;DHT22;28672;49.358;8.780;2022-12-29T04:40:49;9.90;99.90
43047;DHT22;28672;49.358;8.780;2022-12-29T04:43:15;10.00;99.90
43047;DHT22;28672;49.358;8.780;2022-12-29T04:45:46;10.20;99.90
43047;DHT22;28672;49.358;8.780;2022-12-29T04:48:12;10.30;99.90
43047;DHT22;28672;49.358;8.780;2022-12-29T04:50:37;10.50;99.90
43047;DHT22;28672;49.358;8.780;2022-12-29T04:53:03;10.40;99.90
43047;DHT22;28672;49.358;8.780;2022-12-29T04:55:29;10.60;99.90
43047;DHT22;28672;49.358;8.780;2022-12-29T04:57:54;10.70;99.90
43047;DHT22;28672;49.358;8.780;2022-12-29T05:00:20;10.80;99.90
43047;DHT22;28672;49.358;8.780;2022-12-29T05:02:45;11.00;99.90
43047;DHT22;28672;49.358;8.780;2022-12-29T05:05:11;11.00;99.90
43047;DHT22;28672;49.358;8.780;2022-12-29T05:07:37;10.90;99.90
43047;DHT22;28672;49.358;8.780;2022-12-29T05:10:03;10.80;99.90
43047;DHT22;28672;49.358;8.780;2022-12-29T05:12:33;10.90;99.90
43047;DHT22;28672;49.358;8.780;2022-12-29T05:14:59;10.90;99.90
43047;DHT22;28672;49.358;8.780;2022-12-29T05:17:25;10.80;99.90
43047;DHT22;28672;49.358;8.780;2022-12-29T05:19:51;10.90;99.90
43047;DHT22;28672;49.358;8.780;2022-12-29T05:22:16;11.00;99.90
43047;DHT22;28672;49.358;8.780;2022-12-29T05:24:42;11.00;99.90
43047;DHT22;28672;49.358;8.780;2022-12-29T05:27:07;11.10;99.90
43047;DHT22;28672;49.358;8.780;2022-12-29T05:29:34;11.10;99.90
43047;DHT22;28672;49.358;8.780;2022-12-29T05:32:00;11.10;99.90
43047;DHT22;28672;49.358;8.780;2022-12-29T05:34:25;11.20;99.90
43047;DHT22;28672;49.358;8.780;2022-12-29T05:36:51;11.10;99.90
43047;DHT22;28672;49.358;8.780;2022-12-29T05:39:16;11.10;99.90
43047;DHT22;28672;49.358;8.780;2022-12-29T05:41:42;11.10;99.90
43047;DHT22;28672;49.358;8.780;2022-12-29T05:44:09;11.20;99.90
43047;DHT22;28672;49.358;8.780;2022-12-29T05:46:35;11.30;99.90
43047;DHT22;28672;49.358;8.780;2022-12-29T05:49:00;11.40;99.90
43047;DHT22;28672;49.358;8.780;2022-12-29T05:51:26;11.40;99.90
43047;DHT22;28672;49.358;8.780;2022-12-29T05:53:51;11.40;99.90
43047;DHT22;28672;49.358;8.780;2022-12-29T05:56:17;11.30;99.90
43047;DHT22;28672;49.358;8.780;2022-12-29T05:58:42;11.30;99.90
43047;DHT22;28672;49.358;8.780;2022-12-29T06:01:08;11.20;99.90
43047;DHT22;28672;49.358;8.780;2022-12-29T06:03:33;11.20;99.90
43047;DHT22;28672;49.358;8.780;2022-12-29T06:05:59;11.20;99.90
43047;DHT22;28672;49.358;8.780;2022-12-29T06:08:24;11.20;99.90
43047;DHT22;28672;49.358;8.780;2022-12-29T06:10:50;11.10;99.90
43047;DHT22;28672;49.358;8.780;2022-12-29T06:13:16;11.10;99.90
43047;DHT22;28672;49.358;8.780;2022-12-29T06:15:41;11.00;99.90
43047;DHT22;28672;49.358;8.780;2022-12-29T06:18:07;11.10;99.90
43047;DHT22;28672;49.358;8.780;2022-12-29T06:20:33;11.00;99.90
43047;DHT22;28672;49.358;8.780;2022-12-29T06:22:59;11.10;99.90
43047;DHT22;28672;49.358;8.780;2022-12-29T06:25:24;11.00;99.90
43047;DHT22;28672;49.358;8.780;2022-12-29T06:27:50;11.00;99.90
43047;DHT22;28672;49.358;8.780;2022-12-29T06:30:15;10.90;99.90
43047;DHT22;28672;49.358;8.780;2022-12-29T06:32:42;10.90;99.90
43047;DHT22;28672;49.358;8.780;2022-12-29T06:35:08;10.80;99.90
43047;DHT22;28672;49.358;8.780;2022-12-29T06:37:34;10.80;99.90
43047;DHT22;28672;49.358;8.780;2022-12-29T06:39:59;10.80;99.90
43047;DHT22;28672;49.358;8.780;2022-12-29T06:42:25;10.90;99.90
43047;DHT22;28672;49.358;8.780;2022-12-29T06:44:50;10.80;99.90
43047;DHT22;28672;49.358;8.780;2022-12-29T06:47:17;10.80;99.90
43047;DHT22;28672;49.358;8.780;2022-12-29T06:49:43;10.90;99.90
43047;DHT22;28672;49.358;8.780;2022-12-29T06:52:09;11.00;99.90
43047;DHT22;28672;49.358;8.780;2022-12-29T06:54:35;11.10;99.90
43047;DHT22;28672;49.358;8.780;2022-12-29T06:57:00;11.20;99.90
43047;DHT22;28672;49.358;8.780;2022-12-29T06:59:26;11.10;99.90
43047;DHT22;28672;49.358;8.780;2022-12-29T07:01:52;11.10;99.90
43047;DHT22;28672;49.358;8.780;2022-12-29T07:04:17;11.20;99.90
43047;DHT22;28672;49.358;8.780;2022-12-29T07:06:43;11.10;99.90
43047;DHT22;28672;49.358;8.780;2022-12-29T07:09:09;11.10;99.90
43047;DHT22;28672;49.358;8.780;2022-12-29T07:11:35;11.00;99.90
43047;DHT22;28672;49.358;8.780;2022-12-29T07:14:02;11.10;99.90
43047;DHT22;28672;49.358;8.780;2022-12-29T07:16:28;11.20;99.90
43047;DHT22;28672;49.358;8.780;2022-12-29T07:18:55;11.30;99.90
43047;DHT22;28672;49.358;8.780;2022-12-29T07:21:21;11.30;99.90
43047;DHT22;28672;49.358;8.780;2022-12-29T07:23:46;11.30;99.90
43047;DHT22;28672;49.358;8.780;2022-12-29T07:26:14;11.30;99.90
43047;DHT22;28672;49.358;8.780;2022-12-29T07:28:39;11.50;99.90
43047;DHT22;28672;49.358;8.780;2022-12-29T07:31:19;11.40;99.90
43047;DHT22;28672;49.358;8.780;2022-12-29T07:33:45;11.60;99.90
43047;DHT22;28672;49.358;8.780;2022-12-29T07:36:12;11.50;99.90
43047;DHT22;28672;49.358;8.780;2022-12-29T07:38:38;11.50;99.90
43047;DHT22;28672;49.358;8.780;2022-12-29T07:41:04;11.60;99.90
43047;DHT22;28672;49.358;8.780;2022-12-29T07:43:29;11.60;99.90
43047;DHT22;28672;49.358;8.780;2022-12-29T07:45:55;11.70;99.90
43047;DHT22;28672;49.358;8.780;2022-12-29T07:48:21;11.60;99.90
43047;DHT22;28672;49.358;8.780;2022-12-29T07:50:47;11.70;99.90
43047;DHT22;28672;49.358;8.780;2022-12-29T07:53:12;11.70;99.90
43047;DHT22;28672;49.358;8.780;2022-12-29T07:55:38;11.70;99.90
43047;DHT22;28672;49.358;8.780;2022-12-29T07:58:04;11.80;99.90
43047;DHT22;28672;49.358;8.780;2022-12-29T08:00:29;12.00;99.90
43047;DHT22;28672;49.358;8.780;2022-12-29T08:02:55;11.80;99.90
43047;DHT22;28672;49.358;8.780;2022-12-29T08:05:20;11.80;99.90
43047;DHT22;28672;49.358;8.780;2022-12-29T08:07:47;11.80;99.90
43047;DHT22;28672;49.358;8.780;2022-12-29T08:10:13;11.80;99.90
43047;DHT22;28672;49.358;8.780;2022-12-29T08:12:39;11.80;99.90
43047;DHT22;28672;49.358;8.780;2022-12-29T08:15:06;11.80;99.90
43047;DHT22;28672;49.358;8.780;2022-12-29T08:17:32;11.80;99.90
43047;DHT22;28672;49.358;8.780;2022-12-29T08:19:58;12.00;99.90
43047;DHT22;28672;49.358;8.780;2022-12-29T08:22:23;11.80;99.90
43047;DHT22;28672;49.358;8.780;2022-12-29T08:24:49;11.80;99.90
43047;DHT22;28672;49.358;8.780;2022-12-29T08:27:14;11.80;99.90
43047;DHT22;28672;49.358;8.780;2022-12-29T08:29:40;11.80;99.90
43047;DHT22;28672;49.358;8.780;2022-12-29T08:32:06;11.90;99.90
43047;DHT22;28672;49.358;8.780;2022-12-29T08:34:32;12.00;99.90
43047;DHT22;28672;49.358;8.780;2022-12-29T08:36:58;12.00;99.90
43047;DHT22;28672;49.358;8.780;2022-12-29T08:39:23;12.10;99.90
43047;DHT22;28672;49.358;8.780;2022-12-29T08:41:49;12.10;99.90
43047;DHT22;28672;49.358;8.780;2022-12-29T08:44:14;12.20;99.90
43047;DHT22;28672;49.358;8.780;2022-12-29T08:46:40;12.30;99.90
43047;DHT22;28672;49.358;8.780;2022-12-29T08:49:06;12.20;99.90
43047;DHT22;28672;49.358;8.780;2022-12-29T08:51:31;12.20;99.90
43047;DHT22;28672;49.358;8.780;2022-12-29T08:53:57;12.20;99.90
43047;DHT22;28672;49.358;8.780;2022-12-29T08:56:22;12.30;99.90
43047;DHT22;28672;49.358;8.780;2022-12-29T08:58:49;12.20;99.90
43047;DHT22;28672;49.358;8.780;2022-12-29T09:01:15;12.20;99.90
43047;DHT22;28672;49.358;8.780;2022-12-29T09:03:41;12.40;99.90
43047;DHT22;28672;49.358;8.780;2022-12-29T09:06:07;12.40;99.90
43047;DHT22;28672;49.358;8.780;2022-12-29T09:08:32;12.40;99.90
43047;DHT22;28672;49.358;8.780;2022-12-29T09:11:14;12.30;99.90
43047;DHT22;28672;49.358;8.780;2022-12-29T09:13:40;12.50;99.90
43047;DHT22;28672;49.358;8.780;2022-12-29T09:16:06;12.50;99.90
43047;DHT22;28672;49.358;8.780;2022-12-29T09:18:32;12.50;99.90
43047;DHT22;28672;49.358;8.780;2022-12-29T09:20:59;12.50;99.90
43047;DHT22;28672;49.358;8.780;2022-12-29T09:23:26;12.60;99.90
43047;DHT22;28672;49.358;8.780;2022-12-29T09:25:52;12.70;99.90
43047;DHT22;28672;49.358;8.780;2022-12-29T09:28:18;12.70;99.90
43047;DHT22;28672;49.358;8.780;2022-12-29T09:30:43;12.70;99.90
43047;DHT22;28672;49.358;8.780;2022-12-29T09:33:09;12.80;99.90
43047;DHT22;28672;49.358;8.780;2022-12-29T09:35:35;12.70;99.90
43047;DHT22;28672;49.358;8.780;2022-12-29T09:38:00;12.80;99.90
43047;DHT22;28672;49.358;8.780;2022-12-29T09:40:29;12.60;99.90
43047;DHT22;28672;49.358;8.780;2022-12-29T09:45:47;12.60;99.90
43047;DHT22;28672;49.358;8.780;2022-12-29T09:48:22;12.60;99.90
43047;DHT22;28672;49.358;8.780;2022-12-29T09:50:51;12.50;99.90
43047;DHT22;28672;49.358;8.780;2022-12-29T09:53:24;12.50;99.90
43047;DHT22;28672;49.358;8.780;2022-12-29T09:55:54;12.50;99.90
43047;DHT22;28672;49.358;8.780;2022-12-29T09:58:39;12.60;99.90
43047;DHT22;28672;49.358;8.780;2022-12-29T10:01:11;12.60;99.90
43047;DHT22;28672;49.358;8.780;2022-12-29T10:03:46;12.60;99.90
43047;DHT22;28672;49.358;8.780;2022-12-29T10:06:22;12.50;99.90
43047;DHT22;28672;49.358;8.780;2022-12-29T10:17:41;12.40;99.90
43047;DHT22;28672;49.358;8.780;2022-12-29T10:25:17;12.50;99.90
43047;DHT22;28672;49.358;8.780;2022-12-29T10:27:47;12.50;99.90
43047;DHT22;28672;49.358;8.780;2022-12-29T10:30:13;12.50;99.90
43047;DHT22;28672;49.358;8.780;2022-12-29T10:33:10;12.50;99.90
43047;DHT22;28672;49.358;8.780;2022-12-29T10:35:39;12.40;99.90
43047;DHT22;28672;49.358;8.780;2022-12-29T10:38:21;12.40;99.90
43047;DHT22;28672;49.358;8.780;2022-12-29T10:41:13;12.40;99.90
43047;DHT22;28672;49.358;8.780;2022-12-29T10:43:49;12.40;99.90
43047;DHT22;28672;49.358;8.780;2022-12-29T10:46:23;12.50;99.90
43047;DHT22;28672;49.358;8.780;2022-12-29T10:48:49;12.40;99.90
43047;DHT22;28672;49.358;8.780;2022-12-29T10:51:26;12.40;99.90
43047;DHT22;28672;49.358;8.780;2022-12-29T10:54:18;12.50;99.90
43047;DHT22;28672;49.358;8.780;2022-12-29T10:57:22;12.30;99.90
43047;DHT22;28672;49.358;8.780;2022-12-29T10:59:49;12.40;99.90
43047;DHT22;28672;49.358;8.780;2022-12-29T11:07:19;12.50;99.90
43047;DHT22;28672;49.358;8.780;2022-12-29T11:09:45;12.40;99.90
43047;DHT22;28672;49.358;8.780;2022-12-29T11:17:52;12.50;99.90
43047;DHT22;28672;49.358;8.780;2022-12-29T11:20:34;12.60;99.90
43047;DHT22;28672;49.358;8.780;2022-12-29T11:23:01;12.60;99.90
43047;DHT22;28672;49.358;8.780;2022-12-29T11:25:27;12.60;99.90
43047;DHT22;28672;49.358;8.780;2022-12-29T11:28:14;12.60;99.90
43047;DHT22;28672;49.358;8.780;2022-12-29T11:30:40;12.70;99.90
43047;DHT22;28672;49.358;8.780;2022-12-29T11:33:08;12.70;99.90
43047;DHT22;28672;49.358;8.780;2022-12-29T11:35:42;12.70;99.90
43047;DHT22;28672;49.358;8.780;2022-12-29T11:38:23;12.70;99.90
43047;DHT22;28672;49.358;8.780;2022-12-29T11:40:50;12.80;99.90
43047;DHT22;28672;49.358;8.780;2022-12-29T11:43:33;12.80;99.90
43047;DHT22;28672;49.358;8.780;2022-12-29T11:46:00;12.90;99.90
43047;DHT22;28672;49.358;8.780;2022-12-29T11:48:31;12.90;99.90
43047;DHT22;28672;49.358;8.780;2022-12-29T11:50:58;12.90;99.90
43047;DHT22;28672;49.358;8.780;2022-12-29T11:53:43;12.90;99.90
43047;DHT22;28672;49.358;8.780;2022-12-29T11:56:12;12.90;99.90
43047;DHT22;28672;49.358;8.780;2022-12-29T11:58:39;12.80;99.90
43047;DHT22;28672;49.358;8.780;2022-12-29T12:01:21;12.80;99.90
43047;DHT22;28672;49.358;8.780;2022-12-29T12:06:21;12.80;99.90
43047;DHT22;28672;49.358;8.780;2022-12-29T12:14:59;12.60;99.90
43047;DHT22;28672;49.358;8.780;2022-12-29T12:20:18;12.70;99.90
43047;DHT22;28672;49.358;8.780;2022-12-29T12:23:02;12.60;99.90
43047;DHT22;28672;49.358;8.780;2022-12-29T12:26:10;12.60;99.90
43047;DHT22;28672;49.358;8.780;2022-12-29T12:29:32;12.50;99.90
43047;DHT22;28672;49.358;8.780;2022-12-29T12:31:57;12.50;99.90
43047;DHT22;28672;49.358;8.780;2022-12-29T12:34:38;12.50;99.90
43047;DHT22;28672;49.358;8.780;2022-12-29T12:40:26;12.40;99.90
43047;DHT22;28672;49.358;8.780;2022-12-29T12:43:20;12.50;99.90
43047;DHT22;28672;49.358;8.780;2022-12-29T12:58:28;12.60;99.90
43047;DHT22;28672;49.358;8.780;2022-12-29T13:00:20;12.60;99.90
43047;DHT22;28672;49.358;8.780;2022-12-29T13:03:16;12.60;99.90
43047;DHT22;28672;49.358;8.780;2022-12-29T13:11:22;12.50;99.90
43047;DHT22;28672;49.358;8.780;2022-12-29T13:19:04;12.40;99.90
43047;DHT22;28672;49.358;8.780;2022-12-29T13:27:09;11.90;99.90
43047;DHT22;28672;49.358;8.780;2022-12-29T13:35:25;11.60;99.90
43047;DHT22;28672;49.358;8.780;2022-12-29T13:37:57;11.50;99.90
43047;DHT22;28672;49.358;8.780;2022-12-29T13:40:26;11.50;99.90
43047;DHT22;28672;49.358;8.780;2022-12-29T13:42:55;11.40;99.90
43047;DHT22;28672;49.358;8.780;2022-12-29T13:45:24;11.40;99.90
43047;DHT22;28672;49.358;8.780;2022-12-29T13:50:40;11.30;99.90
43047;DHT22;28672;49.358;8.780;2022-12-29T13:53:18;11.20;99.90
43047;DHT22;28672;49.358;8.780;2022-12-29T14:01:22;11.10;99.90
43047;DHT22;28672;49.358;8.780;2022-12-29T14:03:58;11.00;99.90
43047;DHT22;28672;49.358;8.780;2022-12-29T14:06:29;11.00;99.90
43047;DHT22;28672;49.358;8.780;2022-12-29T14:09:00;10.90;99.90
43047;DHT22;28672;49.358;8.780;2022-12-29T14:11:35;10.90;99.90
43047;DHT22;28672;49.358;8.780;2022-12-29T14:14:21;10.80;99.90
43047;DHT22;28672;49.358;8.780;2022-12-29T14:16:47;10.80;99.90
43047;DHT22;28672;49.358;8.780;2022-12-29T14:19:29;10.80;99.90
43047;DHT22;28672;49.358;8.780;2022-12-29T14:22:03;10.90;99.90
43047;DHT22;28672;49.358;8.780;2022-12-29T14:26:58;10.90;99.90
43047;DHT22;28672;49.358;8.780;2022-12-29T14:31:50;10.80;99.90
43047;DHT22;28672;49.358;8.780;2022-12-29T14:34:30;10.90;99.90
43047;DHT22;28672;49.358;8.780;2022-12-29T14:37:02;10.90;99.90
43047;DHT22;28672;49.358;8.780;2022-12-29T14:44:47;10.80;99.90
43047;DHT22;28672;49.358;8.780;2022-12-29T14:55:58;10.60;99.90
43047;DHT22;28672;49.358;8.780;2022-12-29T14:58:31;10.50;99.90
43047;DHT22;28672;49.358;8.780;2022-12-29T15:00:59;10.50;99.90
43047;DHT22;28672;49.358;8.780;2022-12-29T15:03:42;10.50;99.90
43047;DHT22;28672;49.358;8.780;2022-12-29T15:06:19;10.40;99.90
43047;DHT22;28672;49.358;8.780;2022-12-29T15:11:24;10.30;99.90
43047;DHT22;28672;49.358;8.780;2022-12-29T15:13:53;10.30;99.90
43047;DHT22;28672;49.358;8.780;2022-12-29T15:16:32;10.20;99.90
43047;DHT22;28672;49.358;8.780;2022-12-29T15:18:58;10.20;99.90
43047;DHT22;28672;49.358;8.780;2022-12-29T15:21:32;10.20;99.90
43047;DHT22;28672;49.358;8.780;2022-12-29T15:23:59;10.10;99.90
43047;DHT22;28672;49.358;8.780;2022-12-29T15:26:37;9.90;99.90
43047;DHT22;28672;49.358;8.780;2022-12-29T15:29:41;10.00;99.90
43047;DHT22;28672;49.358;8.780;2022-12-29T15:34:47;9.90;99.90
43047;DHT22;28672;49.358;8.780;2022-12-29T15:37:23;9.90;99.90
43047;DHT22;28672;49.358;8.780;2022-12-29T15:39:50;9.90;99.90
43047;DHT22;28672;49.358;8.780;2022-12-29T15:42:47;10.00;99.90
43047;DHT22;28672;49.358;8.780;2022-12-29T15:45:15;9.90;99.90
43047;DHT22;28672;49.358;8.780;2022-12-29T15:47:43;9.90;99.90
43047;DHT22;28672;49.358;8.780;2022-12-29T15:50:27;9.80;99.90
43047;DHT22;28672;49.358;8.780;2022-12-29T15:52:54;9.80;99.90
43047;DHT22;28672;49.358;8.780;2022-12-29T15:55:31;9.80;99.90
43047;DHT22;28672;49.358;8.780;2022-12-29T15:58:00;9.70;99.90
43047;DHT22;28672;49.358;8.780;2022-12-29T16:00:31;9.60;99.90
43047;DHT22;28672;49.358;8.780;2022-12-29T16:03:02;9.50;99.90
43047;DHT22;28672;49.358;8.780;2022-12-29T16:05:33;9.30;99.90
43047;DHT22;28672;49.358;8.780;2022-12-29T16:08:00;9.30;99.90
43047;DHT22;28672;49.358;8.780;2022-12-29T16:10:27;9.20;99.90
43047;DHT22;28672;49.358;8.780;2022-12-29T16:13:02;9.10;99.90
43047;DHT22;28672;49.358;8.780;2022-12-29T16:15:28;9.10;99.90
43047;DHT22;28672;49.358;8.780;2022-12-29T16:17:54;9.00;99.90
43047;DHT22;28672;49.358;8.780;2022-12-29T16:20:31;9.00;99.90
43047;DHT22;28672;49.358;8.780;2022-12-29T16:22:59;9.00;99.90
43047;DHT22;28672;49.358;8.780;2022-12-29T16:25:30;8.90;99.90
43047;DHT22;28672;49.358;8.780;2022-12-29T16:27:58;8.90;99.90
43047;DHT22;28672;49.358;8.780;2022-12-29T16:30:26;8.90;99.90
43047;DHT22;28672;49.358;8.780;2022-12-29T16:32:58;8.90;99.90
43047;DHT22;28672;49.358;8.780;2022-12-29T16:35:26;9.00;99.90
43047;DHT22;28672;49.358;8.780;2022-12-29T16:38:12;9.00;99.90
43047;DHT22;28672;49.358;8.780;2022-12-29T16:40:50;9.00;99.90
43047;DHT22;28672;49.358;8.780;2022-12-29T16:43:24;8.90;99.90
43047;DHT22;28672;49.358;8.780;2022-12-29T16:48:19;8.90;99.90
43047;DHT22;28672;49.358;8.780;2022-12-29T16:50:45;9.00;99.90
43047;DHT22;28672;49.358;8.780;2022-12-29T16:55:50;9.00;99.90
43047;DHT22;28672;49.358;8.780;2022-12-29T16:58:24;9.00;99.90
43047;DHT22;28672;49.358;8.780;2022-12-29T17:00:56;9.00;99.90
43047;DHT22;28672;49.358;8.780;2022-12-29T17:03:24;9.00;99.90
43047;DHT22;28672;49.358;8.780;2022-12-29T17:05:54;9.00;99.90
43047;DHT22;28672;49.358;8.780;2022-12-29T17:08:20;9.00;99.90
43047;DHT22;28672;49.358;8.780;2022-12-29T17:10:53;9.00;99.90
43047;DHT22;28672;49.358;8.780;2022-12-29T17:13:38;8.90;99.90
43047;DHT22;28672;49.358;8.780;2022-12-29T17:16:05;9.00;99.90
43047;DHT22;28672;49.358;8.780;2022-12-29T17:18:33;9.00;99.90
43047;DHT22;28672;49.358;8.780;2022-12-29T17:20:59;9.00;99.90
43047;DHT22;28672;49.358;8.780;2022-12-29T17:23:25;9.00;99.90
43047;DHT22;28672;49.358;8.780;2022-12-29T17:25:51;8.90;99.90
43047;DHT22;28672;49.358;8.780;2022-12-29T17:28:27;8.90;99.90
43047;DHT22;28672;49.358;8.780;2022-12-29T17:30:57;8.90;99.90
43047;DHT22;28672;49.358;8.780;2022-12-29T17:33:23;8.90;99.90
43047;DHT22;28672;49.358;8.780;2022-12-29T17:35:49;8.90;99.90
43047;DHT22;28672;49.358;8.780;2022-12-29T17:38:25;8.90;99.90
43047;DHT22;28672;49.358;8.780;2022-12-29T17:40:52;8.90;99.90
43047;DHT22;28672;49.358;8.780;2022-12-29T17:43:18;9.00;99.90
43047;DHT22;28672;49.358;8.780;2022-12-29T17:45:47;9.00;99.90
43047;DHT22;28672;49.358;8.780;2022-12-29T17:48:15;9.00;99.90
43047;DHT22;28672;49.358;8.780;2022-12-29T17:50:41;9.10;99.90
43047;DHT22;28672;49.358;8.780;2022-12-29T17:53:13;9.00;99.90
43047;DHT22;28672;49.358;8.780;2022-12-29T17:55:40;9.10;99.90
43047;DHT22;28672;49.358;8.780;2022-12-29T18:00:48;9.10;99.90
43047;DHT22;28672;49.358;8.780;2022-12-29T18:03:17;9.20;99.90
43047;DHT22;28672;49.358;8.780;2022-12-29T18:05:43;9.20;99.90
43047;DHT22;28672;49.358;8.780;2022-12-29T18:08:09;9.20;99.90
43047;DHT22;28672;49.358;8.780;2022-12-29T18:10:36;9.20;99.90
43047;DHT22;28672;49.358;8.780;2022-12-29T18:13:02;9.20;99.90
43047;DHT22;28672;49.358;8.780;2022-12-29T18:15:30;9.20;99.90
43047;DHT22;28672;49.358;8.780;2022-12-29T18:18:13;9.20;99.90
43047;DHT22;28672;49.358;8.780;2022-12-29T18:20:40;9.30;99.90
43047;DHT22;28672;49.358;8.780;2022-12-29T18:23:20;9.30;99.90
43047;DHT22;28672;49.358;8.780;2022-12-29T18:25:59;9.40;99.90
43047;DHT22;28672;49.358;8.780;2022-12-29T18:28:25;9.30;99.90
43047;DHT22;28672;49.358;8.780;2022-12-29T18:30:52;9.30;99.90